Time;durP1;ratioP1;P1;durP2;ratioP2;P2;SDS_P1;SDS_P2;PMS_P1;PMS_P2;Temp;Humidity;BMP_temperature;BMP_pressure;BME280_temperature;BME280_humidity;BME280_pressure;Samples;Min_cycle;Max_cycle;Signal;HPM_P1;HPM_P2
2024/04/18 00:01:33;;;;;;;0.70;0.70;;;;;;;;;;5414840;26;20291;-75
2024/04/18 00:04:01;;;;;;;0.70;0.70;;;;;;;;;;5418475;26;20302;-75
2024/04/18 00:06:29;;;;;;;0.70;0.70;;;;;;;;;;5419895;26;20564;-76
2024/04/18 00:08:54;;;;;;;0.68;0.68;;;;;;;;;;5418896;26;20251;-76
2024/04/18 00:11:22;;;;;;;0.70;0.70;;;;;;;;;;5416727;26;20281;-75
2024/04/18 00:13:48;;;;;;;0.60;0.60;;;;;;;;;;5418693;26;20279;-76
2024/04/18 00:16:16;;;;;;;0.60;0.60;;;;;;;;;;5414623;26;20248;-76
2024/04/18 00:18:42;;;;;;;0.73;0.73;;;;;;;;;;5417222;26;20243;-76
2024/04/18 00:21:13;;;;;;;0.70;0.70;;;;;;;;;;5410861;26;20255;-75
2024/04/18 00:23:38;;;;;;;0.70;0.70;;;;;;;;;;5417663;26;20244;-76
2024/04/18 00:26:06;;;;;;;0.60;0.60;;;;;;;;;;5416859;26;20581;-75
2024/04/18 00:28:34;;;;;;;0.70;0.70;;;;;;;;;;5420916;26;20271;-76
2024/04/18 00:30:59;;;;;;;0.60;0.60;;;;;;;;;;5418811;26;21283;-77
2024/04/18 00:33:27;;;;;;;0.70;0.70;;;;;;;;;;5412394;26;20241;-77
2024/04/18 00:35:53;;;;;;;0.70;0.70;;;;;;;;;;5413158;26;20898;-76
2024/04/18 00:38:24;;;;;;;0.70;0.70;;;;;;;;;;5411618;26;20311;-77
2024/04/18 00:40:49;;;;;;;0.70;0.70;;;;;;;;;;5413489;26;20300;-76
2024/04/18 00:43:17;;;;;;;0.70;0.70;;;;;;;;;;5411143;26;20896;-76
2024/04/18 00:45:42;;;;;;;0.70;0.70;;;;;;;;;;5430460;26;20283;-76
2024/04/18 00:48:10;;;;;;;0.70;0.70;;;;;;;;;;5411387;26;20717;-76
2024/04/18 00:50:36;;;;;;;0.70;0.70;;;;;;;;;;5424302;26;20244;-78
2024/04/18 00:53:04;;;;;;;0.70;0.70;;;;;;;;;;5427941;26;20283;-76
2024/04/18 00:55:33;;;;;;;0.60;0.60;;;;;;;;;;5413070;26;20247;-76
2024/04/18 00:58:01;;;;;;;0.70;0.70;;;;;;;;;;5415617;26;20320;-76
2024/04/18 01:00:27;;;;;;;0.60;0.60;;;;;;;;;;5421705;26;20293;-76
2024/04/18 01:02:55;;;;;;;0.70;0.70;;;;;;;;;;5427615;26;20247;-76
2024/04/18 01:05:20;;;;;;;0.70;0.70;;;;;;;;;;5420721;26;20877;-77
2024/04/18 01:07:48;;;;;;;0.70;0.70;;;;;;;;;;5418411;26;20239;-77
2024/04/18 01:10:14;;;;;;;0.70;0.70;;;;;;;;;;5414654;26;20297;-77
2024/04/18 01:12:44;;;;;;;0.60;0.60;;;;;;;;;;5420662;26;20243;-76
2024/04/18 01:15:10;;;;;;;0.60;0.60;;;;;;;;;;5414927;26;20296;-76
2024/04/18 01:17:38;;;;;;;0.70;0.70;;;;;;;;;;5415132;26;20243;-76
2024/04/18 01:20:04;;;;;;;0.75;0.75;;;;;;;;;;5417437;26;20803;-76
2024/04/18 01:22:32;;;;;;;0.70;0.70;;;;;;;;;;5411654;26;20241;-76
2024/04/18 01:24:57;;;;;;;0.70;0.70;;;;;;;;;;5410310;26;20470;-77
2024/04/18 01:27:28;;;;;;;0.65;0.65;;;;;;;;;;5420309;26;20252;-76
2024/04/18 01:29:53;;;;;;;0.63;0.63;;;;;;;;;;5418450;26;21037;-76
2024/04/18 01:32:21;;;;;;;0.60;0.60;;;;;;;;;;5418078;26;20298;-77
2024/04/18 01:34:47;;;;;;;0.60;0.60;;;;;;;;;;5424934;26;21686;-76
2024/04/18 01:37:18;;;;;;;0.60;0.60;;;;;;;;;;5414095;26;20239;-76
2024/04/18 01:39:43;;;;;;;0.60;0.60;;;;;;;;;;5417920;26;20263;-77
2024/04/18 01:42:11;;;;;;;0.65;0.65;;;;;;;;;;5422481;26;20361;-75
2024/04/18 01:44:39;;;;;;;0.70;0.70;;;;;;;;;;5413058;26;20251;-76
2024/04/18 01:47:07;;;;;;;0.70;0.70;;;;;;;;;;5410071;26;20295;-76
2024/04/18 01:49:33;;;;;;;0.60;0.60;;;;;;;;;;5419849;26;20293;-75
2024/04/18 01:52:01;;;;;;;0.70;0.70;;;;;;;;;;5411455;26;21109;-75
2024/04/18 01:54:26;;;;;;;0.90;0.90;;;;;;;;;;5416372;26;20244;-76
2024/04/18 01:56:54;;;;;;;0.60;0.60;;;;;;;;;;5414633;26;20529;-76
2024/04/18 01:59:20;;;;;;;0.70;0.70;;;;;;;;;;5415277;26;20285;-74
2024/04/18 02:01:51;;;;;;;0.80;0.80;;;;;;;;;;5414036;26;21165;-76
2024/04/18 02:04:17;;;;;;;0.60;0.60;;;;;;;;;;5416573;26;20241;-76
2024/04/18 02:06:45;;;;;;;0.70;0.70;;;;;;;;;;5411445;26;20813;-76
2024/04/18 02:09:11;;;;;;;0.70;0.70;;;;;;;;;;5421581;26;20302;-76
2024/04/18 02:11:41;;;;;;;0.60;0.60;;;;;;;;;;5418847;26;20555;-75
2024/04/18 02:14:07;;;;;;;0.65;0.65;;;;;;;;;;5417248;26;20255;-76
2024/04/18 02:16:35;;;;;;;0.80;0.80;;;;;;;;;;5419380;26;20243;-76
2024/04/18 02:19:03;;;;;;;0.60;0.60;;;;;;;;;;5417509;26;20607;-75
2024/04/18 02:21:31;;;;;;;0.70;0.70;;;;;;;;;;5417179;26;20236;-75
2024/04/18 02:23:56;;;;;;;0.60;0.60;;;;;;;;;;5416394;26;20558;-76
2024/04/18 02:26:24;;;;;;;0.68;0.68;;;;;;;;;;5415092;26;20243;-76
2024/04/18 02:28:50;;;;;;;0.70;0.70;;;;;;;;;;5414089;26;21020;-75
2024/04/18 02:31:18;;;;;;;0.70;0.70;;;;;;;;;;5414596;26;20240;-76
2024/04/18 02:33:43;;;;;;;0.60;0.60;;;;;;;;;;5418890;26;20331;-76
2024/04/18 02:36:14;;;;;;;0.70;0.70;;;;;;;;;;5412699;26;21181;-76
2024/04/18 02:38:39;;;;;;;0.70;0.70;;;;;;;;;;5415116;26;20322;-76
2024/04/18 02:41:08;;;;;;;0.65;0.65;;;;;;;;;;5426020;26;20725;-76
2024/04/18 02:43:34;;;;;;;0.70;0.70;;;;;;;;;;5433419;26;21153;-75
2024/04/18 02:46:02;;;;;;;0.70;0.70;;;;;;;;;;5414002;26;23161;-76
2024/04/18 02:48:28;;;;;;;0.60;0.60;;;;;;;;;;5416101;26;20368;-76
2024/04/18 02:50:56;;;;;;;0.60;0.60;;;;;;;;;;5412263;26;20251;-76
2024/04/18 02:53:24;;;;;;;0.75;0.75;;;;;;;;;;5416640;26;20256;-76
2024/04/18 02:55:52;;;;;;;0.70;0.70;;;;;;;;;;5413106;26;20248;-76
2024/04/18 02:58:17;;;;;;;0.70;0.70;;;;;;;;;;5416075;26;21262;-75
2024/04/18 03:00:45;;;;;;;0.70;0.70;;;;;;;;;;5412808;26;20244;-76
2024/04/18 03:03:11;;;;;;;0.70;0.70;;;;;;;;;;5416883;26;21118;-75
2024/04/18 03:05:39;;;;;;;0.70;0.70;;;;;;;;;;5412804;26;20243;-75
2024/04/18 03:08:04;;;;;;;0.70;0.70;;;;;;;;;;5413008;26;20932;-75
2024/04/18 03:10:35;;;;;;;0.70;0.70;;;;;;;;;;5415259;26;20240;-76
2024/04/18 03:13:00;;;;;;;0.70;0.70;;;;;;;;;;5418588;26;20239;-76
2024/04/18 03:15:28;;;;;;;0.60;0.60;;;;;;;;;;5415680;26;20282;-76
2024/04/18 03:17:54;;;;;;;0.70;0.70;;;;;;;;;;5420674;26;20286;-75
2024/04/18 03:20:22;;;;;;;0.70;0.70;;;;;;;;;;5414012;26;20239;-76
2024/04/18 03:22:48;;;;;;;0.70;0.70;;;;;;;;;;5412604;26;20323;-76
2024/04/18 03:25:16;;;;;;;0.70;0.70;;;;;;;;;;5417426;26;20562;-76
2024/04/18 03:27:44;;;;;;;0.60;0.60;;;;;;;;;;5417033;26;20300;-75
2024/04/18 03:30:12;;;;;;;0.70;0.70;;;;;;;;;;5415610;26;20401;-76
2024/04/18 03:32:37;;;;;;;0.70;0.70;;;;;;;;;;5413418;26;20910;-74
2024/04/18 03:35:06;;;;;;;0.60;0.60;;;;;;;;;;5412929;26;20251;-75
2024/04/18 03:37:34;;;;;;;0.70;0.70;;;;;;;;;;5411504;26;20279;-75
2024/04/18 03:40:02;;;;;;;0.60;0.60;;;;;;;;;;5413333;26;20259;-75
2024/04/18 03:42:30;;;;;;;0.70;0.70;;;;;;;;;;5421272;26;20721;-76
2024/04/18 03:45:01;;;;;;;0.60;0.60;;;;;;;;;;5419855;26;20332;-75
2024/04/18 03:47:26;;;;;;;0.70;0.70;;;;;;;;;;5414024;26;20247;-74
2024/04/18 03:49:54;;;;;;;0.60;0.60;;;;;;;;;;5413983;26;20243;-76
2024/04/18 03:52:19;;;;;;;0.70;0.70;;;;;;;;;;5408384;26;20319;-76
2024/04/18 03:54:47;;;;;;;0.60;0.60;;;;;;;;;;5419940;26;20247;-76
2024/04/18 03:57:13;;;;;;;0.70;0.70;;;;;;;;;;5417636;26;20265;-76
2024/04/18 03:59:41;;;;;;;0.70;0.70;;;;;;;;;;5419226;26;20286;-74
2024/04/18 04:02:09;;;;;;;0.60;0.60;;;;;;;;;;5413485;26;20381;-76
2024/04/18 04:04:37;;;;;;;0.60;0.60;;;;;;;;;;5414341;26;20296;-76
2024/04/18 04:07:02;;;;;;;0.70;0.70;;;;;;;;;;5409666;26;20251;-74
2024/04/18 04:09:30;;;;;;;0.70;0.70;;;;;;;;;;5416140;26;20385;-75
2024/04/18 04:11:56;;;;;;;0.60;0.60;;;;;;;;;;5413864;26;20284;-75
2024/04/18 04:14:24;;;;;;;0.70;0.70;;;;;;;;;;5412860;26;20283;-75
2024/04/18 04:16:49;;;;;;;0.60;0.60;;;;;;;;;;5417087;26;20295;-75
2024/04/18 04:19:20;;;;;;;0.63;0.63;;;;;;;;;;5433072;26;20241;-75
2024/04/18 04:21:46;;;;;;;0.70;0.70;;;;;;;;;;5422760;26;20677;-76
2024/04/18 04:24:14;;;;;;;0.68;0.68;;;;;;;;;;5418975;26;20302;-75
2024/04/18 04:26:39;;;;;;;0.70;0.70;;;;;;;;;;5419465;26;20255;-75
2024/04/18 04:29:08;;;;;;;0.70;0.70;;;;;;;;;;5419482;26;20619;-75
2024/04/18 04:34:41;;;;;;;0.60;0.60;;;;;;;;;;5399573;20;20799;-76
2024/04/18 04:37:06;;;;;;;0.70;0.70;;;;;;;;;;5350844;26;21187;-75
2024/04/18 04:39:34;;;;;;;0.70;0.70;;;;;;;;;;5346857;26;20245;-75
2024/04/18 04:42:00;;;;;;;0.60;0.60;;;;;;;;;;5368083;26;20257;-76
2024/04/18 04:44:28;;;;;;;0.60;0.60;;;;;;;;;;5350363;26;20284;-75
2024/04/18 04:46:53;;;;;;;0.63;0.63;;;;;;;;;;5348190;26;20309;-75
2024/04/18 04:49:21;;;;;;;0.63;0.63;;;;;;;;;;5347038;26;20255;-75
2024/04/18 04:51:50;;;;;;;0.60;0.60;;;;;;;;;;5350342;26;20249;-76
2024/04/18 04:54:18;;;;;;;0.68;0.68;;;;;;;;;;5355712;26;20371;-76
2024/04/18 04:56:43;;;;;;;0.70;0.70;;;;;;;;;;5350435;26;20258;-76
2024/04/18 04:59:11;;;;;;;0.70;0.70;;;;;;;;;;5347672;26;20291;-75
2024/04/18 05:01:36;;;;;;;0.70;0.70;;;;;;;;;;5347874;26;20320;-75
2024/04/18 05:04:04;;;;;;;0.70;0.70;;;;;;;;;;5354310;26;20264;-75
2024/04/18 05:06:30;;;;;;;0.70;0.70;;;;;;;;;;5349992;26;20261;-76
2024/04/18 05:09:01;;;;;;;0.68;0.68;;;;;;;;;;5347706;26;20281;-75
2024/04/18 05:11:26;;;;;;;0.70;0.70;;;;;;;;;;5348103;26;20261;-76
2024/04/18 05:13:54;;;;;;;0.70;0.70;;;;;;;;;;5349059;26;20280;-75
2024/04/18 05:16:20;;;;;;;0.70;0.70;;;;;;;;;;5345674;26;20300;-76
2024/04/18 05:18:48;;;;;;;0.70;0.70;;;;;;;;;;5348043;26;20296;-75
2024/04/18 05:21:14;;;;;;;0.70;0.70;;;;;;;;;;5346138;26;20402;-76
2024/04/18 05:23:42;;;;;;;0.70;0.70;;;;;;;;;;5351511;26;22590;-76
2024/04/18 05:26:10;;;;;;;0.65;0.65;;;;;;;;;;5349699;26;20253;-75
2024/04/18 05:31:00;;;;;;;0.70;0.70;;;;;;;;;;5353132;26;20259;-76
2024/04/18 05:31:28;;;;;;;0.60;0.60;;;;;;;;;;5347563;26;20354;-75
2024/04/18 05:33:56;;;;;;;0.60;0.60;;;;;;;;;;5357300;26;20317;-75
2024/04/18 05:36:24;;;;;;;0.63;0.63;;;;;;;;;;5348560;26;21171;-76
2024/04/18 05:38:52;;;;;;;0.70;0.70;;;;;;;;;;5353384;26;20314;-76
2024/04/18 05:41:23;;;;;;;0.70;0.70;;;;;;;;;;5350347;26;21031;-75
2024/04/18 05:43:51;;;;;;;0.80;0.80;;;;;;;;;;5351434;26;20601;-76
2024/04/18 05:46:19;;;;;;;0.77;0.77;;;;;;;;;;5368808;26;20241;-75
2024/04/18 05:48:47;;;;;;;0.70;0.70;;;;;;;;;;5357489;26;20280;-75
2024/04/18 05:51:16;;;;;;;0.70;0.70;;;;;;;;;;5345760;26;20328;-75
2024/04/18 05:53:44;;;;;;;0.70;0.70;;;;;;;;;;5346982;26;20265;-75
2024/04/18 05:56:12;;;;;;;0.70;0.70;;;;;;;;;;5342003;26;20246;-76
2024/04/18 05:58:45;;;;;;;0.70;0.70;;;;;;;;;;5349049;26;20249;-76
2024/04/18 06:01:13;;;;;;;0.70;0.70;;;;;;;;;;5352555;26;20885;-76
2024/04/18 06:03:41;;;;;;;0.70;0.70;;;;;;;;;;5347354;26;20615;-76
2024/04/18 06:06:09;;;;;;;2.35;1.50;;;;;;;;;;5343981;26;20271;-76
2024/04/18 06:08:37;;;;;;;0.70;0.70;;;;;;;;;;5352388;26;20916;-76
2024/04/18 06:11:05;;;;;;;0.60;0.60;;;;;;;;;;5344749;26;20291;-76
2024/04/18 06:13:36;;;;;;;0.70;0.70;;;;;;;;;;5342600;26;20875;-76
2024/04/18 06:16:07;;;;;;;0.80;0.80;;;;;;;;;;5345628;26;20626;-77
2024/04/18 06:18:35;;;;;;;0.70;0.70;;;;;;;;;;5348360;26;20346;-77
2024/04/18 06:21:03;;;;;;;0.70;0.70;;;;;;;;;;5346308;26;20340;-76
2024/04/18 06:23:32;;;;;;;0.70;0.70;;;;;;;;;;5346972;26;20767;-76
2024/04/18 06:26:00;;;;;;;0.60;0.60;;;;;;;;;;5348389;26;20284;-77
2024/04/18 06:28:28;;;;;;;0.80;0.80;;;;;;;;;;5345950;26;20249;-76
2024/04/18 06:30:56;;;;;;;0.60;0.60;;;;;;;;;;5345287;26;20966;-75
2024/04/18 06:33:29;;;;;;;0.70;0.70;;;;;;;;;;5345398;26;20297;-77
2024/04/18 06:35:58;;;;;;;0.80;0.80;;;;;;;;;;5342562;26;20245;-77
2024/04/18 06:38:26;;;;;;;0.60;0.60;;;;;;;;;;5343619;26;20269;-77
2024/04/18 06:40:54;;;;;;;0.68;0.68;;;;;;;;;;5342753;26;20793;-76
2024/04/18 06:43:22;;;;;;;0.70;0.70;;;;;;;;;;5342778;26;20285;-76
2024/04/18 06:45:50;;;;;;;0.65;0.65;;;;;;;;;;5356454;26;20321;-77
2024/04/18 06:48:18;;;;;;;0.60;0.60;;;;;;;;;;5350781;26;20280;-76
2024/04/18 06:50:49;;;;;;;0.70;0.70;;;;;;;;;;5352647;26;20906;-76
2024/04/18 06:53:17;;;;;;;0.70;0.70;;;;;;;;;;5357055;26;20254;-76
2024/04/18 06:55:45;;;;;;;0.70;0.70;;;;;;;;;;5348161;26;20262;-76
2024/04/18 06:58:14;;;;;;;0.60;0.60;;;;;;;;;;5350371;26;20241;-77
2024/04/18 07:00:42;;;;;;;0.70;0.70;;;;;;;;;;5351799;26;20245;-76
2024/04/18 07:03:12;;;;;;;0.70;0.70;;;;;;;;;;5353514;26;20249;-76
2024/04/18 07:05:40;;;;;;;0.60;0.60;;;;;;;;;;5346773;26;20317;-77
2024/04/18 07:08:12;;;;;;;0.73;0.73;;;;;;;;;;5347790;26;20859;-77
2024/04/18 07:10:40;;;;;;;0.63;0.63;;;;;;;;;;5347288;26;20284;-77
2024/04/18 07:13:08;;;;;;;0.70;0.70;;;;;;;;;;5329493;26;23676;-77
2024/04/18 07:15:36;;;;;;;0.60;0.60;;;;;;;;;;5339999;26;20262;-76
2024/04/18 07:18:04;;;;;;;0.70;0.70;;;;;;;;;;5349202;26;20253;-76
2024/04/18 07:20:32;;;;;;;0.70;0.70;;;;;;;;;;5349975;26;20257;-76
2024/04/18 07:23:00;;;;;;;0.73;0.73;;;;;;;;;;5339747;26;20618;-77
2024/04/18 07:25:31;;;;;;;0.70;0.70;;;;;;;;;;5334234;26;20257;-76
2024/04/18 07:27:59;;;;;;;0.70;0.70;;;;;;;;;;5336173;26;20612;-77
2024/04/18 07:30:27;;;;;;;0.70;0.70;;;;;;;;;;5342720;26;20320;-76
2024/04/18 07:32:55;;;;;;;0.70;0.70;;;;;;;;;;5348228;26;20298;-76
2024/04/18 07:35:23;;;;;;;0.60;0.60;;;;;;;;;;5336433;26;20287;-77
2024/04/18 07:37:51;;;;;;;0.70;0.70;;;;;;;;;;5332550;26;20301;-76
2024/04/18 07:40:21;;;;;;;0.60;0.60;;;;;;;;;;5332916;26;20309;-76
2024/04/18 07:42:53;;;;;;;0.60;0.60;;;;;;;;;;5334192;26;20261;-76
2024/04/18 07:45:19;;;;;;;0.70;0.70;;;;;;;;;;5335249;26;20250;-76
2024/04/18 07:47:47;;;;;;;0.68;0.68;;;;;;;;;;5344071;26;20247;-76
2024/04/18 07:50:15;;;;;;;0.70;0.70;;;;;;;;;;5327828;26;20328;-77
2024/04/18 07:52:43;;;;;;;0.70;0.70;;;;;;;;;;5328950;26;20370;-76
2024/04/18 07:55:11;;;;;;;0.60;0.60;;;;;;;;;;5337426;26;20610;-76
2024/04/18 07:57:39;;;;;;;0.70;0.70;;;;;;;;;;5331280;26;20340;-76
2024/04/18 08:00:10;;;;;;;0.60;0.60;;;;;;;;;;5333946;26;20764;-75
2024/04/18 08:02:38;;;;;;;0.80;0.80;;;;;;;;;;5330557;26;20325;-75
2024/04/18 08:05:06;;;;;;;0.70;0.70;;;;;;;;;;5325708;26;21748;-76
2024/04/18 08:07:34;;;;;;;0.65;0.65;;;;;;;;;;5330603;26;20258;-75
2024/04/18 08:10:02;;;;;;;0.70;0.70;;;;;;;;;;5327589;26;20376;-76
2024/04/18 08:12:30;;;;;;;0.70;0.70;;;;;;;;;;5331091;26;21039;-75
2024/04/18 08:14:58;;;;;;;0.70;0.70;;;;;;;;;;5330118;26;20268;-76
2024/04/18 08:17:29;;;;;;;0.60;0.60;;;;;;;;;;5331446;26;20531;-75
2024/04/18 08:19:57;;;;;;;0.70;0.70;;;;;;;;;;5331993;26;20881;-76
2024/04/18 08:22:25;;;;;;;0.70;0.70;;;;;;;;;;5328486;26;20300;-76
2024/04/18 08:24:53;;;;;;;0.60;0.60;;;;;;;;;;5333921;26;20968;-76
2024/04/18 08:27:21;;;;;;;0.70;0.70;;;;;;;;;;5328383;26;20318;-75
2024/04/18 08:29:49;;;;;;;0.70;0.70;;;;;;;;;;5327800;26;20253;-76
2024/04/18 08:32:17;;;;;;;0.70;0.70;;;;;;;;;;5325142;26;20951;-75
2024/04/18 08:34:49;;;;;;;0.65;0.65;;;;;;;;;;5326895;26;20337;-75
2024/04/18 08:37:17;;;;;;;0.60;0.60;;;;;;;;;;5329275;26;20336;-75
2024/04/18 08:39:45;;;;;;;0.60;0.60;;;;;;;;;;5325289;26;20337;-76
2024/04/18 08:42:13;;;;;;;0.80;0.80;;;;;;;;;;5337612;26;20782;-75
2024/04/18 08:44:42;;;;;;;0.65;0.65;;;;;;;;;;5328924;26;20257;-75
2024/04/18 08:47:11;;;;;;;0.70;0.70;;;;;;;;;;5327161;26;20253;-76
2024/04/18 08:49:39;;;;;;;0.70;0.70;;;;;;;;;;5350313;26;20262;-75
2024/04/18 08:52:11;;;;;;;0.70;0.70;;;;;;;;;;5324260;26;20287;-76
2024/04/18 08:54:39;;;;;;;0.70;0.70;;;;;;;;;;5326962;26;20321;-75
2024/04/18 08:57:10;;;;;;;0.70;0.70;;;;;;;;;;5330216;26;20249;-75
2024/04/18 08:59:38;;;;;;;0.70;0.70;;;;;;;;;;5352982;26;20312;-76
2024/04/18 09:02:06;;;;;;;0.70;0.70;;;;;;;;;;5343729;26;20255;-76
2024/04/18 09:04:35;;;;;;;0.60;0.60;;;;;;;;;;5325440;26;20377;-75
2024/04/18 09:07:03;;;;;;;0.70;0.70;;;;;;;;;;5329067;26;20788;-76
2024/04/18 09:09:34;;;;;;;0.75;0.75;;;;;;;;;;5346841;26;20291;-76
2024/04/18 09:12:04;;;;;;;0.70;0.70;;;;;;;;;;5350780;26;20286;-77
2024/04/18 09:14:32;;;;;;;0.60;0.60;;;;;;;;;;5346401;26;20336;-76
2024/04/18 09:17:00;;;;;;;0.70;0.70;;;;;;;;;;5335701;26;20257;-77
2024/04/18 09:19:28;;;;;;;0.70;0.70;;;;;;;;;;5335341;26;21282;-75
2024/04/18 09:21:56;;;;;;;0.70;0.70;;;;;;;;;;5331118;26;20253;-76
2024/04/18 09:24:24;;;;;;;0.60;0.60;;;;;;;;;;5333429;26;20297;-76
2024/04/18 09:26:55;;;;;;;0.70;0.70;;;;;;;;;;5332011;26;20292;-76
2024/04/18 09:29:23;;;;;;;0.70;0.70;;;;;;;;;;5333530;26;20287;-75
2024/04/18 09:31:52;;;;;;;0.70;0.70;;;;;;;;;;5334238;26;20258;-76
2024/04/18 09:34:20;;;;;;;0.70;0.70;;;;;;;;;;5335861;26;20308;-75
2024/04/18 09:36:49;;;;;;;0.70;0.70;;;;;;;;;;5331324;26;20349;-76
2024/04/18 09:39:26;;;;;;;0.70;0.70;;;;;;;;;;5338733;26;20321;-76
2024/04/18 09:42:00;;;;;;;0.63;0.63;;;;;;;;;;5332436;26;20345;-76
2024/04/18 09:44:30;;;;;;;0.60;0.60;;;;;;;;;;5332795;26;20593;-76
2024/04/18 09:46:59;;;;;;;0.70;0.70;;;;;;;;;;5343797;26;20281;-76
2024/04/18 09:49:28;;;;;;;0.70;0.70;;;;;;;;;;5333879;26;20321;-76
2024/04/18 09:51:58;;;;;;;0.60;0.60;;;;;;;;;;5343198;26;20241;-76
2024/04/18 09:54:26;;;;;;;0.70;0.70;;;;;;;;;;5349130;26;20250;-76
2024/04/18 09:56:57;;;;;;;0.70;0.70;;;;;;;;;;5337122;26;20257;-75
2024/04/18 09:59:25;;;;;;;0.70;0.70;;;;;;;;;;5335247;26;20387;-75
2024/04/18 10:01:54;;;;;;;0.70;0.70;;;;;;;;;;5330712;26;21103;-75
2024/04/18 10:04:23;;;;;;;0.70;0.70;;;;;;;;;;5332377;26;20302;-75
2024/04/18 10:06:52;;;;;;;0.70;0.70;;;;;;;;;;5327987;26;20340;-75
2024/04/18 10:09:25;;;;;;;0.60;0.60;;;;;;;;;;5332675;26;23361;-76
2024/04/18 10:11:53;;;;;;;0.90;0.90;;;;;;;;;;5327852;26;20995;-74
2024/04/18 10:14:24;;;;;;;0.63;0.63;;;;;;;;;;5332174;26;20253;-75
2024/04/18 10:16:52;;;;;;;0.60;0.60;;;;;;;;;;5333149;26;20949;-75
2024/04/18 10:19:21;;;;;;;0.68;0.68;;;;;;;;;;5334090;26;20337;-74
2024/04/18 10:21:53;;;;;;;0.70;0.70;;;;;;;;;;5332974;26;20296;-75
2024/04/18 10:24:21;;;;;;;0.70;0.70;;;;;;;;;;5335133;26;20797;-75
2024/04/18 10:26:50;;;;;;;0.80;0.80;;;;;;;;;;5332797;26;20300;-75
2024/04/18 10:29:27;;;;;;;0.60;0.60;;;;;;;;;;5334716;26;20249;-75
2024/04/18 10:31:56;;;;;;;0.65;0.65;;;;;;;;;;5332182;26;20378;-76
2024/04/18 10:34:26;;;;;;;0.60;0.60;;;;;;;;;;5334398;26;20325;-76
2024/04/18 10:36:54;;;;;;;0.60;0.60;;;;;;;;;;5328666;26;20292;-76
2024/04/18 10:39:28;;;;;;;0.70;0.70;;;;;;;;;;5331804;26;21179;-75
2024/04/18 10:42:00;;;;;;;0.70;0.70;;;;;;;;;;5331196;26;20326;-75
2024/04/18 10:44:31;;;;;;;0.60;0.60;;;;;;;;;;5333496;26;20399;-74
2024/04/18 10:46:59;;;;;;;0.70;0.70;;;;;;;;;;5330862;26;20328;-75
2024/04/18 10:49:27;;;;;;;0.70;0.70;;;;;;;;;;5346624;26;20738;-74
2024/04/18 10:51:55;;;;;;;0.70;0.70;;;;;;;;;;5329499;26;20310;-74
2024/04/18 10:54:24;;;;;;;0.70;0.70;;;;;;;;;;5332265;26;20897;-75
2024/04/18 10:56:52;;;;;;;0.70;0.70;;;;;;;;;;5330540;26;20308;-74
2024/04/18 10:59:20;;;;;;;0.68;0.68;;;;;;;;;;5335110;26;20615;-75
2024/04/18 11:01:51;;;;;;;0.60;0.60;;;;;;;;;;5333905;26;20330;-74
2024/04/18 11:04:19;;;;;;;0.70;0.70;;;;;;;;;;5334177;26;20272;-75
2024/04/18 11:06:48;;;;;;;0.70;0.70;;;;;;;;;;5329653;26;20246;-75
2024/04/18 11:09:17;;;;;;;0.70;0.70;;;;;;;;;;5330495;26;20581;-75
2024/04/18 11:11:45;;;;;;;0.60;0.60;;;;;;;;;;5334333;26;22820;-76
2024/04/18 11:14:14;;;;;;;0.70;0.70;;;;;;;;;;5335006;26;20301;-76
2024/04/18 11:16:42;;;;;;;0.70;0.70;;;;;;;;;;5329699;26;20380;-75
2024/04/18 11:19:10;;;;;;;0.63;0.63;;;;;;;;;;5352562;26;21369;-76
2024/04/18 11:21:38;;;;;;;0.70;0.70;;;;;;;;;;5340457;26;21422;-76
2024/04/18 11:24:07;;;;;;;0.70;0.70;;;;;;;;;;5336533;26;20317;-76
2024/04/18 11:26:35;;;;;;;1.02;1.02;;;;;;;;;;5331039;26;21421;-75
2024/04/18 11:29:03;;;;;;;0.70;0.70;;;;;;;;;;5332186;26;20316;-76
2024/04/18 11:31:32;;;;;;;0.70;0.70;;;;;;;;;;5340426;26;20909;-75
2024/04/18 11:34:00;;;;;;;0.70;0.70;;;;;;;;;;5346353;26;20749;-76
2024/04/18 11:36:31;;;;;;;0.70;0.70;;;;;;;;;;5332626;26;20900;-76
2024/04/18 11:39:03;;;;;;;0.60;0.60;;;;;;;;;;5335018;26;20324;-76
2024/04/18 11:41:32;;;;;;;0.70;0.70;;;;;;;;;;5331976;26;20777;-76
2024/04/18 11:44:00;;;;;;;0.60;0.60;;;;;;;;;;5332821;26;20245;-76
2024/04/18 11:46:26;;;;;;;0.70;0.70;;;;;;;;;;5350914;26;20250;-75
2024/04/18 11:48:54;;;;;;;0.70;0.70;;;;;;;;;;5350847;26;20367;-76
2024/04/18 11:51:22;;;;;;;0.70;0.70;;;;;;;;;;5336641;26;20951;-76
2024/04/18 11:53:53;;;;;;;0.70;0.70;;;;;;;;;;5332802;26;20292;-75
2024/04/18 11:56:21;;;;;;;0.70;0.70;;;;;;;;;;5332104;26;20292;-75
2024/04/18 11:58:49;;;;;;;0.70;0.70;;;;;;;;;;5332556;26;21359;-75
2024/04/18 12:01:17;;;;;;;0.60;0.60;;;;;;;;;;5353692;26;20284;-75
2024/04/18 12:03:45;;;;;;;0.70;0.70;;;;;;;;;;5334069;26;20757;-76
2024/04/18 12:06:13;;;;;;;0.70;0.70;;;;;;;;;;5330355;26;20265;-76
2024/04/18 12:08:41;;;;;;;0.70;0.70;;;;;;;;;;5326270;26;20326;-76
2024/04/18 12:11:12;;;;;;;0.70;0.70;;;;;;;;;;5329583;26;20329;-76
2024/04/18 12:13:40;;;;;;;0.70;0.70;;;;;;;;;;5334856;26;20280;-76
2024/04/18 12:16:08;;;;;;;0.70;0.70;;;;;;;;;;5330899;26;21164;-75
2024/04/18 12:18:36;;;;;;;0.70;0.70;;;;;;;;;;5333076;26;20799;-77
2024/04/18 12:21:04;;;;;;;0.60;0.60;;;;;;;;;;5329121;26;20304;-76
2024/04/18 12:23:33;;;;;;;0.70;0.70;;;;;;;;;;5332405;26;20253;-76
2024/04/18 12:26:01;;;;;;;0.70;0.70;;;;;;;;;;5332555;26;21522;-77
2024/04/18 12:28:31;;;;;;;0.70;0.70;;;;;;;;;;5326311;26;20766;-76
2024/04/18 12:30:57;;;;;;;0.70;0.70;;;;;;;;;;5330816;26;20308;-77
2024/04/18 12:33:25;;;;;;;0.70;0.70;;;;;;;;;;5330251;26;21198;-74
2024/04/18 12:35:53;;;;;;;0.70;0.70;;;;;;;;;;5331487;26;22274;-75
2024/04/18 12:38:21;;;;;;;0.70;0.70;;;;;;;;;;5324832;26;20323;-76
2024/04/18 12:40:49;;;;;;;0.65;0.65;;;;;;;;;;5321318;26;20536;-75
2024/04/18 12:43:18;;;;;;;0.70;0.70;;;;;;;;;;5327433;26;20325;-75
2024/04/18 12:45:49;;;;;;;0.70;0.70;;;;;;;;;;5332170;26;21165;-76
2024/04/18 12:48:17;;;;;;;0.70;0.70;;;;;;;;;;5353535;26;20774;-77
2024/04/18 12:50:45;;;;;;;0.70;0.70;;;;;;;;;;5339009;26;20884;-75
2024/04/18 12:53:13;;;;;;;0.70;0.70;;;;;;;;;;5331392;26;20305;-76
2024/04/18 12:55:41;;;;;;;0.70;0.70;;;;;;;;;;5331304;26;20755;-75
2024/04/18 12:58:09;;;;;;;0.68;0.68;;;;;;;;;;5335779;26;20294;-75
2024/04/18 13:00:34;;;;;;;0.70;0.70;;;;;;;;;;5331594;26;20773;-76
2024/04/18 13:03:06;;;;;;;0.70;0.70;;;;;;;;;;5334056;26;20292;-76
2024/04/18 13:05:34;;;;;;;0.70;0.70;;;;;;;;;;5330138;26;20637;-73
2024/04/18 13:08:03;;;;;;;0.70;0.70;;;;;;;;;;5332113;26;20325;-75
2024/04/18 13:10:31;;;;;;;0.75;0.75;;;;;;;;;;5334295;26;20258;-75
2024/04/18 13:12:59;;;;;;;0.70;0.70;;;;;;;;;;5337981;26;20293;-75
2024/04/18 13:15:27;;;;;;;0.70;0.70;;;;;;;;;;5344150;26;20265;-77
2024/04/18 13:17:55;;;;;;;0.70;0.70;;;;;;;;;;5333033;26;20369;-76
2024/04/18 13:20:26;;;;;;;0.70;0.70;;;;;;;;;;5342733;26;20601;-76
2024/04/18 13:22:54;;;;;;;0.70;0.70;;;;;;;;;;5333965;26;20324;-76
2024/04/18 13:25:22;;;;;;;0.68;0.68;;;;;;;;;;5332856;26;20257;-77
2024/04/18 13:27:50;;;;;;;0.70;0.70;;;;;;;;;;5336172;26;20307;-77
2024/04/18 13:30:21;;;;;;;0.80;0.80;;;;;;;;;;5329079;26;20302;-77
2024/04/18 13:32:49;;;;;;;0.73;0.73;;;;;;;;;;5327205;26;20265;-77
2024/04/18 13:35:17;;;;;;;0.70;0.70;;;;;;;;;;5332369;26;20619;-76
2024/04/18 13:37:47;;;;;;;0.70;0.70;;;;;;;;;;5331733;26;20305;-76
2024/04/18 13:40:15;;;;;;;0.70;0.70;;;;;;;;;;5335160;26;20298;-76
2024/04/18 13:42:43;;;;;;;0.70;0.70;;;;;;;;;;5334677;26;21392;-75
2024/04/18 13:45:12;;;;;;;0.60;0.60;;;;;;;;;;5343254;26;20290;-77
2024/04/18 13:47:40;;;;;;;0.60;0.60;;;;;;;;;;5332916;26;20249;-76
2024/04/18 13:50:10;;;;;;;0.63;0.63;;;;;;;;;;5324346;26;20262;-77
2024/04/18 13:52:41;;;;;;;0.70;0.70;;;;;;;;;;5325462;26;20612;-75
2024/04/18 13:55:11;;;;;;;0.60;0.60;;;;;;;;;;5330957;26;20249;-78
2024/04/18 13:57:39;;;;;;;0.70;0.70;;;;;;;;;;5333328;26;20961;-77
2024/04/18 14:00:08;;;;;;;0.60;0.60;;;;;;;;;;5332840;26;20309;-77
2024/04/18 14:02:34;;;;;;;0.70;0.70;;;;;;;;;;5334668;26;20317;-76
2024/04/18 14:05:02;;;;;;;0.70;0.70;;;;;;;;;;5332381;26;20594;-77
2024/04/18 14:07:30;;;;;;;0.70;0.70;;;;;;;;;;5331176;26;20336;-76
2024/04/18 14:09:55;;;;;;;0.70;0.70;;;;;;;;;;5328730;26;20249;-76
2024/04/18 14:12:26;;;;;;;0.60;0.60;;;;;;;;;;5332975;26;20284;-76
2024/04/18 14:15:05;;;;;;;0.70;0.70;;;;;;;;;;5340671;26;21582;-76
2024/04/18 14:20:17;;;;;;;0.60;0.60;;;;;;;;;;5333628;26;20260;-75
2024/04/18 14:22:45;;;;;;;0.60;0.60;;;;;;;;;;5330255;26;20301;-74
2024/04/18 14:25:14;;;;;;;0.70;0.70;;;;;;;;;;5328875;26;20330;-77
2024/04/18 14:27:44;;;;;;;0.70;0.70;;;;;;;;;;5336230;26;20303;-78
2024/04/18 14:30:13;;;;;;;0.70;0.70;;;;;;;;;;5351817;26;20249;-78
2024/04/18 14:32:41;;;;;;;0.70;0.70;;;;;;;;;;5344806;26;20245;-76
2024/04/18 14:35:09;;;;;;;0.60;0.60;;;;;;;;;;5332675;26;20940;-76
2024/04/18 14:37:37;;;;;;;0.60;0.60;;;;;;;;;;5333298;26;20260;-77
2024/04/18 14:40:05;;;;;;;0.65;0.65;;;;;;;;;;5330598;26;20749;-78
2024/04/18 14:42:33;;;;;;;0.63;0.63;;;;;;;;;;5336763;26;20616;-77
2024/04/18 14:45:12;;;;;;;0.70;0.70;;;;;;;;;;5333603;26;20257;-77
2024/04/18 14:47:41;;;;;;;0.70;0.70;;;;;;;;;;5332143;26;20342;-76
2024/04/18 14:50:09;;;;;;;0.60;0.60;;;;;;;;;;5330782;26;20818;-77
2024/04/18 14:52:46;;;;;;;0.70;0.70;;;;;;;;;;5329599;26;20250;-76
2024/04/18 14:55:15;;;;;;;0.60;0.60;;;;;;;;;;5329537;26;20384;-76